createdAt,value
2019-03-25T00:00:42.249Z,7.17
2019-03-25T00:05:49.626Z,5.60
2019-03-25T00:10:55.385Z,9.13
2019-03-25T00:16:01.304Z,7.87
2019-03-25T00:21:07.293Z,5.93
2019-03-25T00:26:13.301Z,11.27
2019-03-25T00:31:19.229Z,10.60
2019-03-25T00:36:25.147Z,7.27
2019-03-25T00:41:31.016Z,11.97
2019-03-25T00:46:36.892Z,6.63
2019-03-25T00:51:42.764Z,5.50
2019-03-25T00:56:48.742Z,10.17
2019-03-25T01:01:54.670Z,6.27
2019-03-25T01:07:00.486Z,5.63
2019-03-25T01:12:06.442Z,5.57
2019-03-25T01:17:12.391Z,6.93
2019-03-25T01:22:18.320Z,9.90
2019-03-25T01:27:24.069Z,12.03
2019-03-25T01:32:30.046Z,6.43
2019-03-25T01:37:35.909Z,9.53
2019-03-25T01:42:41.890Z,6.77
2019-03-25T01:47:47.760Z,5.43
2019-03-25T01:52:53.628Z,10.50
2019-03-25T01:57:59.500Z,9.43
2019-03-25T02:03:05.368Z,9.53
2019-03-25T02:08:11.709Z,12.87
2019-03-25T02:13:17.560Z,8.67
2019-03-25T02:18:23.455Z,7.10
2019-03-25T02:23:29.363Z,7.60
2019-03-25T02:28:35.133Z,9.37
2019-03-25T02:33:41.013Z,9.03
2019-03-25T02:38:46.941Z,7.43
2019-03-25T02:43:52.807Z,7.47
2019-03-25T02:48:58.726Z,8.10
2019-03-25T02:54:04.902Z,8.67
2019-03-25T02:59:10.771Z,15.23
2019-03-25T03:04:16.635Z,9.80
2019-03-25T03:09:22.505Z,10.57
2019-03-25T03:14:28.391Z,9.87
2019-03-25T03:19:34.360Z,6.97
2019-03-25T03:24:40.188Z,7.43
2019-03-25T03:29:47.135Z,7.57
2019-03-25T03:34:53.053Z,7.57
2019-03-25T03:39:59.282Z,12.60
2019-03-25T03:45:06.487Z,8.73
2019-03-25T03:50:15.249Z,9.23
2019-03-25T03:55:21.024Z,4.93
2019-03-25T04:00:31.477Z,10.07
2019-03-25T04:05:37.239Z,9.00
2019-03-25T04:10:45.311Z,9.73
2019-03-25T04:15:51.135Z,9.47
2019-03-25T04:20:57.006Z,12.90
2019-03-25T04:26:02.872Z,10.80
2019-03-25T04:31:08.842Z,7.80
2019-03-25T04:36:14.917Z,8.77
2019-03-25T04:41:20.938Z,9.30
2019-03-25T04:46:26.764Z,9.13
2019-03-25T04:51:32.631Z,9.27
2019-03-25T04:56:40.121Z,9.67
2019-03-25T05:01:47.036Z,12.10
2019-03-25T05:06:52.917Z,13.43
2019-03-25T05:11:58.695Z,16.30
2019-03-25T05:17:04.550Z,10.10
2019-03-25T05:22:11.180Z,6.73
2019-03-25T05:27:17.118Z,9.70
2019-03-25T05:32:22.989Z,9.63
2019-03-25T05:37:28.848Z,11.93
2019-03-25T05:42:34.626Z,7.83
2019-03-25T05:47:40.397Z,8.10
2019-03-25T05:52:46.183Z,9.37
2019-03-25T05:57:51.929Z,8.50
2019-03-25T06:02:57.798Z,7.13
2019-03-25T06:08:03.571Z,7.63
2019-03-25T06:13:09.441Z,8.77
2019-03-25T06:18:15.204Z,10.00
2019-03-25T06:23:20.983Z,13.53
2019-03-25T06:28:26.746Z,14.13
2019-03-25T06:33:32.633Z,5.43
2019-03-25T06:38:38.488Z,5.97
2019-03-25T06:43:44.289Z,14.57
2019-03-25T06:48:50.430Z,14.53
2019-03-25T06:53:56.321Z,9.37
2019-03-25T06:59:02.083Z,9.57
2019-03-25T07:04:07.946Z,7.33
2019-03-25T07:09:13.923Z,6.90
2019-03-25T07:14:19.996Z,10.97
2019-03-25T07:19:25.771Z,7.57
2019-03-25T07:24:32.662Z,8.20
2019-03-25T07:29:38.433Z,9.63
2019-03-25T07:34:44.197Z,9.57
2019-03-25T07:39:50.165Z,6.43
2019-03-25T07:44:56.057Z,9.28
2019-03-25T07:50:02.061Z,10.20
2019-03-25T07:55:08.248Z,9.70
2019-03-25T08:00:15.171Z,9.50
2019-03-25T08:05:20.943Z,9.97
2019-03-25T08:10:34.278Z,6.30
2019-03-25T08:15:40.198Z,11.87
2019-03-25T08:20:46.094Z,11.30
2019-03-25T08:25:52.937Z,9.93
2019-03-25T08:30:58.712Z,11.40
2019-03-25T08:36:04.629Z,10.13
2019-03-25T08:41:10.555Z,7.93
2019-03-25T08:46:16.847Z,11.47
2019-03-25T08:51:22.604Z,13.30
2019-03-25T08:56:28.397Z,11.00
2019-03-25T09:01:34.389Z,10.37
2019-03-25T09:06:40.334Z,11.87
2019-03-25T09:11:46.210Z,9.97
2019-03-25T09:16:52.066Z,9.80
2019-03-25T09:21:58.058Z,10.07
2019-03-25T09:27:04.038Z,10.10
2019-03-25T09:32:09.815Z,9.40
2019-03-25T09:37:15.764Z,6.27
2019-03-25T09:42:21.755Z,6.73
2019-03-25T09:47:28.682Z,11.10
2019-03-25T09:52:38.724Z,6.00
2019-03-25T09:57:42.031Z,6.27
2019-03-25T10:02:47.982Z,8.27
2019-03-25T10:07:53.844Z,8.60
2019-03-25T10:12:59.698Z,6.63
2019-03-25T10:18:05.613Z,9.17
2019-03-25T10:23:11.477Z,11.80
2019-03-25T10:28:17.259Z,5.67
2019-03-25T10:33:23.119Z,3.20
2019-03-25T10:38:28.871Z,2.13
2019-03-25T10:43:34.751Z,7.70
2019-03-25T10:48:40.612Z,7.10
2019-03-25T10:53:46.512Z,4.27
2019-03-25T10:58:58.057Z,1.37
2019-03-25T11:03:59.976Z,3.87
2019-03-25T11:09:07.475Z,2.93
2019-03-25T11:14:13.253Z,4.10
2019-03-25T11:19:19.223Z,2.60
2019-03-25T11:24:25.089Z,4.70
2019-03-25T11:29:30.865Z,3.63
2019-03-25T11:34:37.648Z,1.50
2019-03-25T11:39:43.424Z,2.87
2019-03-25T11:44:49.188Z,2.23
2019-03-25T11:49:55.064Z,8.07
2019-03-25T11:55:00.830Z,4.70
2019-03-25T12:00:08.752Z,2.43
2019-03-25T12:05:14.521Z,7.27
2019-03-25T12:10:20.401Z,3.20
2019-03-25T12:15:26.185Z,3.47
2019-03-25T12:20:33.159Z,5.10
2019-03-25T12:25:38.925Z,4.43
2019-03-25T12:30:45.931Z,2.30
2019-03-25T12:35:51.890Z,7.77
2019-03-25T12:40:57.764Z,4.10
2019-03-25T12:46:03.648Z,8.07
2019-03-25T12:51:09.404Z,6.73
2019-03-25T12:56:15.285Z,5.73
2019-03-25T13:01:21.043Z,8.40
2019-03-25T13:06:26.820Z,7.17
2019-03-25T13:11:33.737Z,8.30
2019-03-25T13:16:39.791Z,7.13
2019-03-25T13:21:45.869Z,6.40
2019-03-25T13:26:51.731Z,5.60
2019-03-25T13:31:57.604Z,6.53
2019-03-25T13:37:03.690Z,6.70
2019-03-25T13:42:10.580Z,9.80
2019-03-25T13:47:16.467Z,7.23
2019-03-25T13:52:22.470Z,9.47
2019-03-25T13:57:28.568Z,10.93
2019-03-25T14:02:34.397Z,7.67
2019-03-25T14:07:40.345Z,7.47
2019-03-25T14:12:47.343Z,18.97
2019-03-25T14:17:53.115Z,10.77
2019-03-25T14:22:58.982Z,7.57
2019-03-25T14:28:04.849Z,6.37
2019-03-25T14:33:10.618Z,8.13
2019-03-25T14:38:16.537Z,7.20
2019-03-25T14:43:22.500Z,4.43
2019-03-25T14:48:28.340Z,4.60
2019-03-25T14:53:44.726Z,7.63
2019-03-25T14:58:41.922Z,8.83
2019-03-25T15:03:47.698Z,10.07
2019-03-25T15:08:53.457Z,8.90
2019-03-25T15:13:59.329Z,9.35
2019-03-25T15:19:05.201Z,12.57
2019-03-25T15:24:10.965Z,9.60
2019-03-25T15:29:16.902Z,11.70
2019-03-25T15:34:23.015Z,10.53
2019-03-25T15:39:28.932Z,12.90
2019-03-25T15:44:34.766Z,9.27
2019-03-25T15:49:40.525Z,13.23
2019-03-25T15:54:46.297Z,13.90
2019-03-25T15:59:52.063Z,16.00
2019-03-25T16:04:58.046Z,9.17
2019-03-25T16:10:04.931Z,11.13
2019-03-25T16:15:11.752Z,4.37
2019-03-25T16:20:17.703Z,8.77
2019-03-25T16:25:27.604Z,5.67
2019-03-25T16:30:33.434Z,10.00
2019-03-25T16:35:39.245Z,8.17
2019-03-25T16:40:45.089Z,16.13
2019-03-25T16:45:51.050Z,9.90
2019-03-25T16:50:56.933Z,14.50
2019-03-25T16:56:02.901Z,20.73
2019-03-25T17:01:10.443Z,26.20
2019-03-25T17:06:16.503Z,24.57
2019-03-25T17:11:22.360Z,20.60
2019-03-25T17:16:28.532Z,19.90
2019-03-25T17:21:34.503Z,18.77
2019-03-25T17:26:42.539Z,12.43
2019-03-25T17:31:48.437Z,3.20
2019-03-25T17:36:54.261Z,6.93
2019-03-25T17:42:00.143Z,5.77
2019-03-25T17:47:06.052Z,11.97
2019-03-25T17:52:11.983Z,24.57
2019-03-25T17:57:17.881Z,22.23
2019-03-25T18:02:23.931Z,14.63
2019-03-25T18:07:29.803Z,13.30
2019-03-25T18:12:39.121Z,14.93
2019-03-25T18:17:44.290Z,16.73
2019-03-25T18:22:50.080Z,13.03
2019-03-25T18:27:56.051Z,10.90
2019-03-25T18:33:01.932Z,9.27
2019-03-25T18:38:08.778Z,7.37
2019-03-25T18:43:14.584Z,3.80
2019-03-25T18:48:20.352Z,3.37
2019-03-25T18:53:27.149Z,3.63
2019-03-25T18:58:33.354Z,3.07
2019-03-25T19:03:39.168Z,3.70
2019-03-25T19:08:44.983Z,7.43
2019-03-25T19:13:51.825Z,8.13
2019-03-25T19:18:57.741Z,6.63
2019-03-25T19:24:03.638Z,8.97
2019-03-25T19:29:09.387Z,8.30
2019-03-25T19:34:16.176Z,9.90
2019-03-25T19:39:22.083Z,9.27
2019-03-25T19:44:28.027Z,7.43
2019-03-25T19:49:35.521Z,8.27
2019-03-25T19:54:41.292Z,10.43
2019-03-25T19:59:47.450Z,9.57
2019-03-25T20:04:54.122Z,13.27
2019-03-25T20:10:02.204Z,16.33
2019-03-25T20:15:08.496Z,21.13
2019-03-25T20:20:14.545Z,32.57
2019-03-25T20:25:20.517Z,47.20
2019-03-25T20:30:26.447Z,37.03
2019-03-25T20:35:32.336Z,37.10
2019-03-25T20:40:38.237Z,43.97
2019-03-25T20:45:46.526Z,34.90
2019-03-25T20:50:52.583Z,26.93
2019-03-25T20:55:58.435Z,18.50
2019-03-25T21:01:05.199Z,18.60
2019-03-25T21:06:10.970Z,21.63
2019-03-25T21:11:16.902Z,13.87
2019-03-25T21:16:22.865Z,13.77
2019-03-25T21:21:28.790Z,14.13
2019-03-25T21:26:34.883Z,15.00
2019-03-25T21:31:40.813Z,12.97
2019-03-25T21:36:46.761Z,14.57
2019-03-25T21:41:54.651Z,13.67
2019-03-25T21:47:00.690Z,16.10
2019-03-25T21:52:06.666Z,14.77
2019-03-25T21:57:12.680Z,14.00
2019-03-25T22:02:19.648Z,13.53
2019-03-25T22:07:25.923Z,16.83
2019-03-25T22:12:31.911Z,19.83
2019-03-25T22:17:38.499Z,18.47
2019-03-25T22:22:44.299Z,25.20
2019-03-25T22:27:50.249Z,21.27
2019-03-25T22:32:57.289Z,16.63
2019-03-25T22:38:03.212Z,16.47
2019-03-25T22:43:08.979Z,15.13
2019-03-25T22:48:14.954Z,22.17
2019-03-25T22:53:20.936Z,29.10
2019-03-25T22:58:26.901Z,32.50
2019-03-25T23:03:38.985Z,32.30
2019-03-25T23:08:40.388Z,30.57
2019-03-25T23:13:46.385Z,28.37
2019-03-25T23:18:52.463Z,35.73
2019-03-25T23:24:00.775Z,34.20
2019-03-25T23:29:06.821Z,37.83
2019-03-25T23:34:12.696Z,38.97
2019-03-25T23:39:18.566Z,29.10
2019-03-25T23:44:25.380Z,26.17
2019-03-25T23:49:31.236Z,23.27
2019-03-25T23:54:37.221Z,18.10
2019-03-25T23:59:43.007Z,21.83
